Airfield :
LOGIN :

Register | Disclaimer

   EN    FR    IT 

 










Legend :    VFR   Marginal VFR   IFR   Intensive IFR   Very Intensive IFR
Visi :
Ceiling :
>= 8 km
>= 3000ft
5 to 8 km
1000 to 3000 ft
1500m to 5 km
500 to 1000 ft
800 to 1500m
200 to 500 ft
< 800m
< 200 ft
Symbols :   Thunderstorms  Fog  Heavy snow  Heavy precipitations  Wind > 20 kt
SIGMETs :     Misc.  Thunderstorms  Icing  Turbulence  Mountain Waves  Volcanic Ashes






- Airport Elevation : 2096 ft
- IATA code : AUR


LFLW - Aurillac

CURRENT METAR :
  • 141000Z AUTO 12007KT 070V150 CAVOK 09/M04 Q1021 NOSIG

EXPIRED METARs :
  • 140930Z AUTO 11007KT 070V160 CAVOK 08/M04 Q1022 NOSIG
  • 140900Z AUTO 12008KT 080V150 CAVOK 08/M05 Q1021 NOSIG
  • 140830Z AUTO 11009KT CAVOK 07/M04 Q1022 NOSIG
  • 140800Z AUTO 11010KT CAVOK 06/M04 Q1022 NOSIG
  • 140730Z AUTO 07004KT CAVOK 04/M04 Q1022 NOSIG

TAF TAF LFLW
Valid from the 14 at 09:00 until the 14 at 18:00 UTC


140800Z 1409/1418 10010KT CAVOK



MET'MAP, your aeronautical weather chart ! - Copyright ORBIFLY December 2007 - Disclaimer

ORBIFLY MET'MAP TEAM :

Programming & Development : Alexandra Zaïnal
Concept & original design : Baudouin d'Aumeries
Assistance for programming : Marc-Olivier Méhu
Technical & hardware support : Manuel Goepfert

Contact : metmap@orbifly.com




SOURCES & CREDITS :

   NOAA